^^
Datos históricos de la estación: Murcia-Puente Tocinos
Diario Informe para Abril 22, 2019 Unidades:  Métrico    Ingés   Ambas
Diario Semanal Mensual Anual
  Máxima: Mínima: Promedio:
Temperatura: 28.4 °C 20.2 °C 24.2 °C
Punto de rocio: 18.5 °C 15.4 °C 17 °C
Humedad: 80% 45.8% 65%
Velocidad viento: 18.4km/h 0km/h 8.3km/h
Racha viento: 35.4km/h - -
Viento- - ENE
Presión: 1015.0 hPa 1012.1 hPa -
Precipitación: 0.0 mm    
 
 
Tabla de datos para Abril 22, 2019
Hora Temperatura Punto de rocio Presión Viento Velocidad viento Racha viento Humedad Intensidad lluvia(por hora) Nubes
00:04 22.6 °C 17 °C 1014.3 hPa NE 6.9 km/h 11.9 km/h 71% 0.0 mm
00:09 22.5 °C 17 °C 1014.2 hPa NE 7.2 km/h 13 km/h 71% 0.0 mm
00:14 22.5 °C 17 °C 1014.2 hPa NE 7.6 km/h 13 km/h 71% 0.0 mm
00:19 22.4 °C 16.9 °C 1014.2 hPa NE 7.6 km/h 13 km/h 71% 0.0 mm
00:24 22.4 °C 17.1 °C 1014.2 hPa NE 7.6 km/h 13 km/h 71.9% 0.0 mm
00:29 22.4 °C 17.1 °C 1014.2 hPa NE 7.6 km/h 11.9 km/h 72% 0.0 mm
00:34 22.4 °C 17.1 °C 1014.2 hPa NE 7.6 km/h 11.3 km/h 72% 0.0 mm
00:39 22.4 °C 17.1 °C 1014.2 hPa NE 7.3 km/h 13.7 km/h 72% 0.0 mm
00:44 22.4 °C 17.1 °C 1014.2 hPa NE 6.9 km/h 14.5 km/h 72% 0.0 mm
00:49 22.4 °C 17.1 °C 1014.2 hPa NE 6.9 km/h 11.9 km/h 71.9% 0.0 mm
00:54 22.5 °C 17 °C 1014.2 hPa NE 6.9 km/h 11.3 km/h 71% 0.0 mm
00:59 22.4 °C 16.9 °C 1014.2 hPa Este 6.2 km/h 10 km/h 71% 0.0 mm
01:04 22.4 °C 17.1 °C 1014.3 hPa ENE 5 km/h 9.7 km/h 71.7% 0.0 mm
01:09 22.4 °C 17.1 °C 1014.3 hPa NE 4.2 km/h 9.7 km/h 72% 0.0 mm
01:14 22.4 °C 17.1 °C 1014.3 hPa NNE 2.9 km/h 7.4 km/h 72% 0.0 mm
01:19 22.4 °C 17.1 °C 1014.4 hPa NNE 2.7 km/h 8 km/h 72% 0.0 mm
01:24 22.4 °C 17.1 °C 1014.4 hPa NE 2.2 km/h 9.3 km/h 72% 0.0 mm
01:29 22.3 °C 17 °C 1014.4 hPa NE 2.9 km/h 9.7 km/h 72% 0.0 mm
01:34 22.3 °C 17 °C 1014.4 hPa NE 3.9 km/h 6.4 km/h 72% 0.0 mm
01:39 22.3 °C 17 °C 1014.3 hPa NE 2.4 km/h 5.8 km/h 72% 0.0 mm
01:44 22.3 °C 17 °C 1014.3 hPa Calm   7.4 km/h 72% 0.0 mm
01:49 22.2 °C 16.9 °C 1014.5 hPa NNE 1.4 km/h 8.4 km/h 72% 0.0 mm
01:54 22.2 °C 17.1 °C 1014.5 hPa NNE 3.9 km/h 9.3 km/h 72.9% 0.0 mm
01:59 22.1 °C 17 °C 1014.5 hPa NE 4.3 km/h 9.7 km/h 73% 0.0 mm
02:04 22 °C 16.9 °C 1014.5 hPa NE 5 km/h 9.7 km/h 73% 0.0 mm
02:09 21.9 °C 17 °C 1014.4 hPa NE 4.9 km/h 9.7 km/h 73.6% 0.0 mm
02:14 21.9 °C 17.1 °C 1014.4 hPa NE 4.7 km/h 11.1 km/h 74% 0.0 mm
02:19 21.8 °C 17 °C 1014.4 hPa NNE 4.8 km/h 11.3 km/h 74% 0.0 mm
02:24 21.8 °C 16.9 °C 1014.3 hPa NNE 5 km/h 9.5 km/h 74% 0.0 mm
02:29 21.7 °C 16.9 °C 1014.3 hPa NNE 5.3 km/h 9.7 km/h 74% 0.0 mm
02:34 21.7 °C 16.9 °C 1014.4 hPa NE 5.8 km/h 9.7 km/h 74.2% 0.0 mm
02:39 21.6 °C 17 °C 1014.4 hPa NE 5.5 km/h 9.7 km/h 75% 0.0 mm
02:44 21.6 °C 17 °C 1014.4 hPa NNE 5 km/h 8.4 km/h 75% 0.0 mm
02:49 21.5 °C 16.9 °C 1014.4 hPa NNE 4.6 km/h 8 km/h 75% 0.0 mm
02:54 21.4 °C 16.8 °C 1014.3 hPa NNE 3.9 km/h 8 km/h 75% 0.0 mm
02:59 21.4 °C 16.8 °C 1014.3 hPa NNE 3.5 km/h 4.8 km/h 75.2% 0.0 mm
03:04 21.5 °C 17 °C 1014.3 hPa NNE 2.9 km/h   75.6% 0.0 mm
03:09 21.6 °C 16.9 °C 1014.2 hPa NNE 1.8 km/h   75% 0.0 mm
03:14 21.6 °C 17 °C 1014.2 hPa Calm     75% 0.0 mm
03:19 21.6 °C 17 °C 1014.2 hPa Calm     75% 0.0 mm
03:24 21.7 °C 17.1 °C 1014.2 hPa Calm   3.9 km/h 75% 0.0 mm
03:29 21.7 °C 17 °C 1014.2 hPa Calm   3.7 km/h 75% 0.0 mm
03:34 21.6 °C 17 °C 1014.2 hPa Calm   3.2 km/h 75% 0.0 mm
03:39 21.6 °C 17 °C 1014.2 hPa Calm   5.8 km/h 75% 0.0 mm
03:44 21.6 °C 17 °C 1014.2 hPa Calm   6.4 km/h 75% 0.0 mm
03:49 21.6 °C 17 °C 1014.2 hPa North 0.9 km/h 6.4 km/h 75% 0.0 mm
03:54 21.6 °C 17 °C 1014.2 hPa North 2.2 km/h 4.8 km/h 75% 0.0 mm
03:59 21.5 °C 16.9 °C 1014.2 hPa North 1.3 km/h 4.7 km/h 75% 0.0 mm
04:04 21.5 °C 17 °C 1014.2 hPa Calm   5.8 km/h 75.5% 0.0 mm
04:09 21.4 °C 17 °C 1014.1 hPa NE 1.2 km/h 7.4 km/h 76% 0.0 mm
04:14 21.4 °C 17 °C 1014.1 hPa NE 3.2 km/h 8 km/h 76% 0.0 mm
04:19 21.3 °C 16.9 °C 1014.1 hPa NE 2 km/h   76% 0.0 mm
04:24 21.3 °C 16.8 °C 1014.1 hPa Calm   3.7 km/h 75.6% 0.0 mm
04:29 21.3 °C 16.7 °C 1014.1 hPa Calm   3.2 km/h 75% 0.0 mm
04:34 21.3 °C 16.8 °C 1014.1 hPa Calm     75.8% 0.0 mm
04:39 21.3 °C 16.9 °C 1014.1 hPa Calm   7.4 km/h 76% 0.0 mm
04:44 21.2 °C 16.8 °C 1014.1 hPa Calm   8 km/h 76% 0.0 mm
04:49 21.2 °C 16.8 °C 1014.1 hPa Este 1.1 km/h 7.4 km/h 76% 0.0 mm
04:54 21.1 °C 16.7 °C 1014.1 hPa Este 2.9 km/h 8 km/h 76% 0.0 mm
04:59 21.1 °C 16.8 °C 1014.1 hPa ESE 2.6 km/h 8 km/h 76.5% 0.0 mm
05:04 21.1 °C 16.8 °C 1014.1 hPa ESE 2.2 km/h   76.6% 0.0 mm
05:09 21.1 °C 16.7 °C 1014.0 hPa ESE 1.4 km/h   76% 0.0 mm
05:14 21.2 °C 16.8 °C 1014.0 hPa Calm     76% 0.0 mm
05:19 21.2 °C 16.8 °C 1014.0 hPa Calm   4.7 km/h 76% 0.0 mm
05:24 21.1 °C 16.7 °C 1014.0 hPa Calm   5.6 km/h 76% 0.0 mm
05:29 21 °C 16.7 °C 1014.0 hPa ENE 0.8 km/h 4.8 km/h 76% 0.0 mm
05:34 20.9 °C 16.5 °C 1014.0 hPa ENE 2.2 km/h 5.6 km/h 76.1% 0.0 mm
05:39 20.8 °C 16.7 °C 1014.0 hPa ENE 2.5 km/h 5 km/h 77% 0.0 mm
05:44 20.8 °C 16.7 °C 1014.0 hPa ENE 2.9 km/h 5.6 km/h 77% 0.0 mm
05:49 20.8 °C 16.6 °C 1014.1 hPa ENE 1.8 km/h 4.8 km/h 77% 0.0 mm
05:54 20.8 °C 16.6 °C 1014.1 hPa Calm   3.2 km/h 77% 0.0 mm
05:59 20.8 °C 16.6 °C 1014.1 hPa ENE 0.9 km/h 5.8 km/h 77% 0.0 mm
06:04 20.8 °C 16.6 °C 1014.3 hPa ENE 2.2 km/h 6.4 km/h 77% 0.0 mm
06:09 20.7 °C 16.5 °C 1014.3 hPa ENE 2.5 km/h 8 km/h 77% 0.0 mm
06:14 20.7 °C 16.5 °C 1014.3 hPa ENE 2.9 km/h 4.8 km/h 77% 0.0 mm
06:19 20.7 °C 16.5 °C 1014.3 hPa ENE 2.7 km/h 4.7 km/h 77.2% 0.0 mm
06:24 20.6 °C 16.6 °C 1014.3 hPa ENE 2.2 km/h 4.8 km/h 78% 0.0 mm
06:29 20.6 °C 16.6 °C 1014.3 hPa ENE 1.4 km/h 5.8 km/h 78% 0.0 mm
06:34 20.4 °C 16.5 °C 1014.3 hPa Calm   6.4 km/h 78% 0.0 mm
06:39 20.4 °C 16.6 °C 1014.3 hPa ENE 0.8 km/h 5.8 km/h 79% 0.0 mm
06:44 20.4 °C 16.6 °C 1014.3 hPa ENE 2.2 km/h 6.4 km/h 79% 0.0 mm
06:49 20.4 °C 16.6 °C 1014.4 hPa Este 2.6 km/h 7.4 km/h 78.9% 0.0 mm
06:54 20.3 °C 16.5 °C 1014.4 hPa Este 3.2 km/h 8 km/h 78.7% 0.0 mm
06:59 20.3 °C 16.5 °C 1014.4 hPa Este 3.1 km/h 8 km/h 79% 0.0 mm
07:04 20.2 °C 16.5 °C 1014.4 hPa Este 2.9 km/h 3.2 km/h 79% 0.0 mm
07:09 20.2 °C 16.4 °C 1014.4 hPa ENE 1.8 km/h 5.8 km/h 79% 0.0 mm
07:14 20.2 °C 16.4 °C 1014.4 hPa Calm   6.4 km/h 79% 0.0 mm
07:19 20.2 °C 16.4 °C 1014.4 hPa NE 1.2 km/h 7.4 km/h 79% 0.0 mm
07:24 20.2 °C 16.4 °C 1014.4 hPa NE 3.2 km/h 8 km/h 79% 0.0 mm
07:29 20.2 °C 16.5 °C 1014.4 hPa Este 3.5 km/h 8 km/h 79% 0.0 mm
07:34 20.3 °C 16.6 °C 1014.5 hPa Este 3.9 km/h 8 km/h 79% 0.0 mm
07:39 20.5 °C 16.7 °C 1014.5 hPa Este 2.3 km/h 3.2 km/h 79% 0.0 mm
07:44 20.7 °C 16.7 °C 1014.5 hPa Calm   4.7 km/h 78.1% 0.0 mm
07:49 20.9 °C 16.8 °C 1014.6 hPa NNE 0.8 km/h 5.8 km/h 77.6% 0.0 mm
07:54 21.1 °C 16.9 °C 1014.6 hPa NNE 2.2 km/h 6.4 km/h 77% 0.0 mm
07:59 21.3 °C 16.9 °C 1014.6 hPa NNE 1.3 km/h 3.9 km/h 76% 0.0 mm
08:04 21.5 °C 16.9 °C 1014.6 hPa Calm   5.8 km/h 75.2% 0.0 mm
08:09 21.7 °C 17 °C 1014.6 hPa Calm   6.4 km/h 74.5% 0.0 mm
08:14 21.9 °C 16.9 °C 1014.6 hPa Calm   5 km/h 73.5% 0.0 mm
08:19 22.1 °C 17.1 °C 1014.8 hPa NE 0.9 km/h 5.6 km/h 73% 0.0 mm
08:24 22.3 °C 17.1 °C 1014.8 hPa NE 2.2 km/h 4.8 km/h 72.4% 0.0 mm
08:29 22.6 °C 17.2 °C 1014.8 hPa NNE 1.4 km/h 2.3 km/h 71.7% 0.0 mm
08:34 22.7 °C 17.2 °C 1014.9 hPa Calm   5.6 km/h 71% 0.0 mm
08:39 22.7 °C 17.3 °C 1014.9 hPa NNO 0.8 km/h 5.6 km/h 71.2% 0.0 mm
08:44 22.9 °C 17.3 °C 1014.9 hPa NNO 2.2 km/h 3.9 km/h 71% 0.0 mm
08:49 23.1 °C 17.3 °C 1014.9 hPa ONO 2.2 km/h 7.4 km/h 70% 0.0 mm
08:54 23 °C 17.2 °C 1014.9 hPa Oeste 2.2 km/h 8 km/h 70% 0.0 mm
08:59 22.8 °C 17.2 °C 1014.9 hPa OSO 2.9 km/h 8 km/h 70.4% 0.0 mm
09:04 22.8 °C 17.3 °C 1014.9 hPa SO 3.9 km/h 10 km/h 71% 0.0 mm
09:09 22.8 °C 17.2 °C 1014.8 hPa Sur 4.2 km/h 9.7 km/h 71% 0.0 mm
09:14 22.8 °C 17.4 °C 1014.8 hPa Sur 4.7 km/h 9.5 km/h 71.3% 0.0 mm
09:19 23 °C 17.4 °C 1014.8 hPa SSO 4.3 km/h 9.7 km/h 71% 0.0 mm
09:24 23 °C 17.4 °C 1014.8 hPa OSO 3.9 km/h 9.7 km/h 71% 0.0 mm
09:29 23.1 °C 17.5 °C 1014.8 hPa Oeste 3.9 km/h 8 km/h 70.9% 0.0 mm
09:34 23.2 °C 17.5 °C 1014.8 hPa SO 3.9 km/h 11.1 km/h 70.1% 0.0 mm
09:39 23.3 °C 17.5 °C 1014.8 hPa SSO 4.2 km/h 11.3 km/h 70% 0.0 mm
09:44 23.4 °C 17.6 °C 1014.8 hPa SO 4.7 km/h 9.7 km/h 70% 0.0 mm
09:49 23.5 °C 17.5 °C 1015.0 hPa SSO 4.7 km/h 13 km/h 69% 0.0 mm
09:54 23.6 °C 17.5 °C 1015.0 hPa SSO 4.7 km/h 12.9 km/h 69% 0.0 mm
09:59 23.8 °C 17.7 °C 1015.0 hPa SO 4.3 km/h 8.4 km/h 68.5% 0.0 mm
10:04 24 °C 17.6 °C 1015.0 hPa SO 3.9 km/h 9.5 km/h 67.3% 0.0 mm
10:09 23.9 °C 17.5 °C 1014.8 hPa SSO 4.8 km/h 9.7 km/h 67.2% 0.0 mm
10:14 24.1 °C 17.7 °C 1014.8 hPa SSO 6.5 km/h 9.7 km/h 67.5% 0.0 mm
10:19 24.4 °C 17.7 °C 1014.8 hPa SE 4.9 km/h 9.5 km/h 66.2% 0.0 mm
10:24 24.7 °C 17.7 °C 1014.8 hPa SSE 2.2 km/h 9.7 km/h 65% 0.0 mm
10:29 25 °C 17.7 °C 1014.8 hPa ESE 2.6 km/h 7.6 km/h 64.2% 0.0 mm
10:34 25.2 °C 17.8 °C 1014.8 hPa ESE 3.2 km/h 9.5 km/h 63.5% 0.0 mm
10:39 25.3 °C 17.7 °C 1014.8 hPa Este 3.9 km/h 9.7 km/h 63% 0.0 mm
10:44 25.3 °C 17.6 °C 1014.8 hPa ESE 5 km/h 10.3 km/h 62.3% 0.0 mm
10:49 25.4 °C 17.6 °C 1014.8 hPa Sur 5 km/h 13 km/h 62% 0.0 mm
10:54 25.4 °C 17.5 °C 1014.7 hPa SSE 5 km/h 13 km/h 61.6% 0.0 mm
10:59 25.5 °C 17.2 °C 1014.7 hPa SSO 4.9 km/h 13 km/h 60% 0.0 mm
11:04 25.7 °C 16.7 °C 1014.7 hPa ESE 4.7 km/h 10 km/h 57.9% 0.0 mm
11:09 25.8 °C 16.5 °C 1014.7 hPa NE 4.3 km/h 9.7 km/h 56.5% 0.0 mm
11:14 26.1 °C 16.6 °C 1014.7 hPa ONO 3.9 km/h 9.7 km/h 56% 0.0 mm
11:19 26.1 °C 16.6 °C 1014.7 hPa SSE 4.3 km/h 12.2 km/h 56% 0.0 mm
11:24 26.1 °C 16.6 °C 1014.7 hPa SE 5 km/h 13 km/h 56% 0.0 mm
11:29 26.1 °C 16.4 °C 1014.7 hPa NE 5.7 km/h 19 km/h 55.2% 0.0 mm
11:34 26.3 °C 16.4 °C 1014.7 hPa NE 6.9 km/h 19.3 km/h 54.6% 0.0 mm
11:39 26.3 °C 16.5 °C 1014.5 hPa NE 8.1 km/h 18.5 km/h 54.7% 0.0 mm
11:44 26.3 °C 16.5 °C 1014.5 hPa North 10 km/h 19.3 km/h 54.8% 0.0 mm
11:49 26.3 °C 16.3 °C 1014.5 hPa Este 9.1 km/h 13 km/h 54.1% 0.0 mm
11:54 26.5 °C 16.4 °C 1014.5 hPa North 7.6 km/h 12.9 km/h 54% 0.0 mm
11:59 26.8 °C 16.5 °C 1014.5 hPa NE 7.1 km/h 19 km/h 53.3% 0.0 mm
12:04 26.8 °C 16.4 °C 1014.5 hPa ENE 6.5 km/h 19.3 km/h 52.9% 0.0 mm
12:09 27 °C 16.5 °C 1014.5 hPa ESE 7.6 km/h 17.7 km/h 52.7% 0.0 mm
12:14 27.2 °C 16.6 °C 1014.5 hPa NNE 9.5 km/h 22.2 km/h 52.4% 0.0 mm
12:19 27.2 °C 16.6 °C 1014.5 hPa NE 9.2 km/h 22.5 km/h 52.3% 0.0 mm
12:24 27.1 °C 16.7 °C 1014.4 hPa NNE 8.7 km/h 24.1 km/h 52.9% 0.0 mm
12:29 27.1 °C 16.7 °C 1014.4 hPa NE 10.6 km/h 24.1 km/h 53% 0.0 mm
12:34 27.3 °C 16.6 °C 1014.4 hPa NE 13.7 km/h 24.1 km/h 52% 0.0 mm
12:39 27.3 °C 16.6 °C 1014.4 hPa NNE 13.1 km/h 24.1 km/h 52% 0.0 mm
12:44 27.3 °C 16.8 °C 1014.4 hPa NNE 12.2 km/h 24.1 km/h 52.7% 0.0 mm
12:49 27.4 °C 17 °C 1014.4 hPa ENE 12.5 km/h 22.5 km/h 53.1% 0.0 mm
12:54 27.6 °C 17.2 °C 1014.4 hPa NE 13 km/h 20.9 km/h 53.1% 0.0 mm
12:59 27.6 °C 17.2 °C 1014.4 hPa NE 11.9 km/h 22.5 km/h 53.1% 0.0 mm
13:04 27.7 °C 17.3 °C 1014.4 hPa NE 10.3 km/h 26.2 km/h 53.1% 0.0 mm
13:09 27.8 °C 17.3 °C 1014.2 hPa ENE 11 km/h 28.6 km/h 52.8% 0.0 mm
13:14 27.8 °C 17.1 °C 1014.2 hPa NE 12.2 km/h 29.6 km/h 52.1% 0.0 mm
13:19 27.9 °C 17.2 °C 1014.2 hPa NE 13.7 km/h 28.2 km/h 52.4% 0.0 mm
13:24 27.8 °C 17 °C 1014.2 hPa NE 16.1 km/h 30.9 km/h 51.7% 0.0 mm
13:29 27.8 °C 16.9 °C 1014.2 hPa NE 15.6 km/h 32.2 km/h 51.6% 0.0 mm
13:34 27.9 °C 17.2 °C 1014.2 hPa NE 14.8 km/h 24.1 km/h 52.2% 0.0 mm
13:39 27.8 °C 17.3 °C 1014.0 hPa NE 14.4 km/h 27.8 km/h 52.8% 0.0 mm
13:44 27.8 °C 17.1 °C 1014.0 hPa NE 13.7 km/h 29.6 km/h 52.3% 0.0 mm
13:49 27.7 °C 17.2 °C 1014.0 hPa ENE 13.8 km/h 29 km/h 52.6% 0.0 mm
13:54 27.9 °C 17.4 °C 1014.0 hPa NE 14 km/h 29.6 km/h 52.8% 0.0 mm
13:59 28 °C 17.3 °C 1014.0 hPa NE 14.3 km/h 29 km/h 52.3% 0.0 mm
14:04 27.9 °C 17.5 °C 1014.0 hPa NE 14.8 km/h 26.2 km/h 53% 0.0 mm
14:09 27.7 °C 17.6 °C 1014.0 hPa NE 14.8 km/h 32.8 km/h 53.9% 0.0 mm
14:14 27.7 °C 17.5 °C 1014.0 hPa NE 14.8 km/h 32.2 km/h 53.7% 0.0 mm
14:19 27.6 °C 17.6 °C 1014.0 hPa ENE 15.7 km/h 29 km/h 54.6% 0.0 mm
14:24 27.7 °C 17.6 °C 1014.0 hPa NE 17.2 km/h 32.3 km/h 54.2% 0.0 mm
14:29 27.5 °C 17.6 °C 1014.0 hPa NE 17.7 km/h 33.8 km/h 54.8% 0.0 mm
14:34 27.4 °C 17.6 °C 1014.0 hPa NE 18.4 km/h 33.8 km/h 55% 0.0 mm
14:39 27.4 °C 17.5 °C 1013.9 hPa NE 17.9 km/h 32.2 km/h 54.8% 0.0 mm
14:44 27.3 °C 17.5 °C 1013.9 hPa NE 17.2 km/h 30.6 km/h 54.9% 0.0 mm
14:49 27.4 °C 17.5 °C 1013.9 hPa NE 16.3 km/h 27.8 km/h 54.9% 0.0 mm
14:54 27.4 °C 17.5 °C 1013.7 hPa ENE 14.8 km/h 27.4 km/h 54.8% 0.0 mm
14:59 27.5 °C 17.5 °C 1013.7 hPa NE 15.5 km/h 27.8 km/h 54.5% 0.0 mm
15:04 27.5 °C 17.4 °C 1013.7 hPa NE 16.4 km/h 27.4 km/h 54% 0.0 mm
15:09 27.6 °C 16.9 °C 1013.7 hPa ENE 15.5 km/h 27 km/h 52% 0.0 mm
15:14 27.5 °C 16.8 °C 1013.7 hPa NE 14 km/h 29.6 km/h 52% 0.0 mm
15:19 27.5 °C 16.8 °C 1013.7 hPa ENE 14 km/h 29 km/h 52% 0.0 mm
15:24 27.5 °C 16.8 °C 1013.5 hPa ENE 14 km/h 27.8 km/h 52% 0.0 mm
15:29 27.3 °C 16.4 °C 1013.5 hPa NE 14.8 km/h 27.8 km/h 51.5% 0.0 mm
15:34 27.3 °C 16.6 °C 1013.5 hPa NE 16.1 km/h 27.4 km/h 52% 0.0 mm
15:39 27.5 °C 16.4 °C 1013.5 hPa ENE 14.9 km/h 24.1 km/h 50.8% 0.0 mm
15:44 27.6 °C 15.9 °C 1013.5 hPa NNE 13 km/h 25.9 km/h 48.8% 0.0 mm
15:49 27.7 °C 16.3 °C 1013.5 hPa NE 14 km/h 25.7 km/h 50.1% 0.0 mm
15:54 27.7 °C 16.3 °C 1013.3 hPa NE 15.6 km/h 27.8 km/h 50% 0.0 mm
15:59 27.7 °C 16.4 °C 1013.3 hPa NE 15.9 km/h 27.4 km/h 50.2% 0.0 mm
16:04 27.8 °C 16.4 °C 1013.3 hPa NE 16.4 km/h 27.8 km/h 50% 0.0 mm
16:09 27.8 °C 16.3 °C 1013.2 hPa ENE 15.5 km/h 29.8 km/h 49.5% 0.0 mm
16:14 28 °C 16.2 °C 1013.2 hPa NE 14 km/h 30.6 km/h 48.9% 0.0 mm
16:19 27.9 °C 16 °C 1013.2 hPa NE 14 km/h 29 km/h 48.2% 0.0 mm
16:24 28 °C 15.6 °C 1013.1 hPa NE 14 km/h 25.9 km/h 46.9% 0.0 mm
16:29 27.9 °C 15.6 °C 1013.1 hPa NE 14 km/h 26.2 km/h 47% 0.0 mm
16:34 27.9 °C 15.6 °C 1013.1 hPa ENE 14 km/h 25.9 km/h 47.3% 0.0 mm
16:39 28 °C 15.8 °C 1012.9 hPa NE 14.6 km/h 26.2 km/h 47.6% 0.0 mm
16:44 28.1 °C 15.6 °C 1012.9 hPa NE 15.6 km/h 25.7 km/h 46.6% 0.0 mm
16:49 28 °C 15.5 °C 1012.9 hPa NE 16.5 km/h 34.3 km/h 46.7% 0.0 mm
16:54 28.1 °C 15.5 °C 1012.7 hPa NE 18 km/h 33.8 km/h 46.3% 0.0 mm
16:59 28.2 °C 15.7 °C 1012.7 hPa NE 16.3 km/h 33.5 km/h 46.6% 0.0 mm
17:04 28.4 °C 15.7 °C 1012.7 hPa NE 13.7 km/h 33.8 km/h 46% 0.0 mm
17:09 28.4 °C 15.6 °C 1012.6 hPa NE 14.6 km/h 27 km/h 45.8% 0.0 mm
17:14 28.2 °C 15.4 °C 1012.6 hPa NE 16.1 km/h 35.2 km/h 45.9% 0.0 mm
17:19 28 °C 15.5 °C 1012.7 hPa NE 16.9 km/h 35.4 km/h 46.7% 0.0 mm
17:24 27.8 °C 16 °C 1012.7 hPa NE 18.4 km/h 29.6 km/h 48.5% 0.0 mm
17:29 27.8 °C 16 °C 1012.7 hPa NE 17.9 km/h 29.6 km/h 48.5% 0.0 mm
17:34 27.8 °C 16 °C 1012.7 hPa NE 17.2 km/h 29.6 km/h 48.5% 0.0 mm
17:39 27.8 °C 16.4 °C 1012.5 hPa NE 16.6 km/h 29.8 km/h 49.8% 0.0 mm
17:44 27.8 °C 16.1 °C 1012.5 hPa NE 15.6 km/h 31.7 km/h 49% 0.0 mm
17:49 27.6 °C 16.1 °C 1012.5 hPa NE 16.7 km/h 34.6 km/h 49.4% 0.0 mm
17:54 27.3 °C 16.3 °C 1012.5 hPa NE 18.4 km/h 35.4 km/h 50.8% 0.0 mm
17:59 27.3 °C 16.2 °C 1012.5 hPa NE 18.4 km/h 33.8 km/h 50.7% 0.0 mm
18:04 27.1 °C 16 °C 1012.5 hPa NE 18.4 km/h 29 km/h 50.7% 0.0 mm
18:09 27.1 °C 16.1 °C 1012.4 hPa NE 18.4 km/h 29.8 km/h 50.9% 0.0 mm
18:14 27.1 °C 16.1 °C 1012.4 hPa NE 18.4 km/h 30.6 km/h 51.3% 0.0 mm
18:19 27.1 °C 16.3 °C 1012.4 hPa NE 17.5 km/h 29 km/h 51.8% 0.0 mm
18:24 27.1 °C 16.5 °C 1012.3 hPa NE 16.1 km/h 28.2 km/h 52.5% 0.0 mm
18:29 26.9 °C 16 °C 1012.3 hPa NE 16.2 km/h 29.6 km/h 51.3% 0.0 mm
18:34 26.8 °C 16.4 °C 1012.3 hPa NE 16.4 km/h 29 km/h 52.8% 0.0 mm
18:39 26.9 °C 16.5 °C 1012.2 hPa NE 16.3 km/h 31.7 km/h 53% 0.0 mm
18:44 26.8 °C 16.5 °C 1012.2 hPa NE 16.1 km/h 32.2 km/h 53.4% 0.0 mm
18:49 26.8 °C 16.5 °C 1012.2 hPa NE 16.1 km/h 27.8 km/h 53.2% 0.0 mm
18:54 26.9 °C 16.6 °C 1012.2 hPa NE 16.1 km/h 25.9 km/h 53.2% 0.0 mm
18:59 26.8 °C 16.7 °C 1012.2 hPa NE 15.6 km/h 27 km/h 54% 0.0 mm
19:04 26.7 °C 16.4 °C 1012.2 hPa NE 14.8 km/h 27.8 km/h 53.5% 0.0 mm
19:09 26.5 °C 16.3 °C 1012.2 hPa NE 15.7 km/h 29.6 km/h 53.7% 0.0 mm
19:14 26.6 °C 16.3 °C 1012.2 hPa NE 17.2 km/h 29.1 km/h 53.4% 0.0 mm
19:19 26.4 °C 16.1 °C 1012.2 hPa NE 17.2 km/h 33.3 km/h 53.1% 0.0 mm
19:24 26.4 °C 16.3 °C 1012.1 hPa NE 17.2 km/h 33.8 km/h 53.8% 0.0 mm
19:29 26.3 °C 16.3 °C 1012.1 hPa NE 17.2 km/h 33.5 km/h 54.1% 0.0 mm
19:34 26.2 °C 16.5 °C 1012.2 hPa NE 17.2 km/h 33.8 km/h 55.2% 0.0 mm
19:39 26.2 °C 16.7 °C 1012.2 hPa NE 16.9 km/h 27.4 km/h 55.9% 0.0 mm
19:44 26.2 °C 16.8 °C 1012.2 hPa ENE 16.4 km/h 25.7 km/h 56% 0.0 mm
19:49 26.2 °C 16.7 °C 1012.2 hPa NE 15.3 km/h 28.2 km/h 56% 0.0 mm
19:54 26.3 °C 16.9 °C 1012.2 hPa ENE 13.7 km/h 27.4 km/h 56.3% 0.0 mm
19:59 26.2 °C 16.9 °C 1012.2 hPa NE 12.6 km/h 20.9 km/h 56.7% 0.0 mm
20:04 26.1 °C 17 °C 1012.3 hPa NE 11.1 km/h 22.5 km/h 57.4% 0.0 mm
20:09 26 °C 16.9 °C 1012.3 hPa ENE 11.4 km/h 22.5 km/h 57.3% 0.0 mm
20:14 25.8 °C 16.8 °C 1012.3 hPa NE 11.9 km/h 25.9 km/h 57.5% 0.0 mm
20:19 25.7 °C 16.8 °C 1012.4 hPa NE 12.3 km/h 25.7 km/h 57.9% 0.0 mm
20:24 25.5 °C 16.7 °C 1012.4 hPa NE 13 km/h 29.1 km/h 58.4% 0.0 mm
20:29 25.3 °C 17 °C 1012.4 hPa NE 14 km/h 29.6 km/h 60.4% 0.0 mm
20:34 25.1 °C 17.1 °C 1012.5 hPa NE 15.6 km/h 25.9 km/h 61.1% 0.0 mm
20:39 25 °C 17.2 °C 1012.5 hPa NE 15 km/h 25.7 km/h 62% 0.0 mm
20:44 24.8 °C 17.3 °C 1012.5 hPa NE 14 km/h 22.2 km/h 63.1% 0.0 mm
20:49 24.7 °C 17.4 °C 1012.7 hPa NE 14.3 km/h 22.5 km/h 64% 0.0 mm
20:54 24.5 °C 17.5 °C 1012.7 hPa NE 14.8 km/h 24.5 km/h 64.9% 0.0 mm
20:59 24.3 °C 17.5 °C 1012.7 hPa NE 14.3 km/h 24.5 km/h 65.5% 0.0 mm
21:04 24.3 °C 17.7 °C 1012.8 hPa NE 13.7 km/h 24.1 km/h 66.5% 0.0 mm
21:09 24.2 °C 17.7 °C 1012.8 hPa NE 13.4 km/h 24.1 km/h 67.1% 0.0 mm
21:14 24.1 °C 17.9 °C 1012.8 hPa NE 13 km/h 24.1 km/h 68.4% 0.0 mm
21:19 23.9 °C 17.9 °C 1012.9 hPa NE 13.4 km/h 24.1 km/h 69% 0.0 mm
21:24 23.8 °C 18 °C 1012.9 hPa NE 14 km/h 22.5 km/h 69.8% 0.0 mm
21:29 23.7 °C 18.1 °C 1012.9 hPa NE 13.2 km/h 22.5 km/h 70.7% 0.0 mm
21:34 23.6 °C 18.1 °C 1012.9 hPa NE 11.9 km/h 18.5 km/h 71.1% 0.0 mm
21:39 23.5 °C 18.1 °C 1012.9 hPa NE 11.9 km/h 19.3 km/h 72% 0.0 mm
21:44 23.4 °C 18.1 °C 1012.9 hPa NE 11.9 km/h 18 km/h 72% 0.0 mm
21:49 23.3 °C 18.1 °C 1013.0 hPa NE 11.6 km/h 19.3 km/h 72.4% 0.0 mm
21:54 23.3 °C 18.2 °C 1013.0 hPa NE 11.1 km/h 19.3 km/h 73% 0.0 mm
21:59 23.2 °C 18.2 °C 1013.0 hPa NE 10.4 km/h 16.1 km/h 73.4% 0.0 mm
22:04 23.2 °C 18.3 °C 1013.1 hPa NE 9.5 km/h 20.9 km/h 74% 0.0 mm
22:09 23.1 °C 18.3 °C 1013.1 hPa NE 9.8 km/h 20.9 km/h 74.4% 0.0 mm
22:14 23.1 °C 18.4 °C 1013.1 hPa NE 10.3 km/h 19.3 km/h 75% 0.0 mm
22:19 23 °C 18.3 °C 1013.1 hPa NE 10 km/h 16.1 km/h 75% 0.0 mm
22:24 22.9 °C 18.2 °C 1013.1 hPa NE 9.5 km/h 14.8 km/h 75% 0.0 mm
22:29 22.9 °C 18.3 °C 1013.1 hPa NE 9.2 km/h 14.5 km/h 75.5% 0.0 mm
22:34 22.8 °C 18.3 °C 1013.4 hPa NE 8.7 km/h 11.9 km/h 76% 0.0 mm
22:39 22.7 °C 18.3 °C 1013.4 hPa NE 8.3 km/h 11.9 km/h 76% 0.0 mm
22:44 22.7 °C 18.4 °C 1013.4 hPa NE 7.6 km/h 11.9 km/h 76.7% 0.0 mm
22:49 22.7 °C 18.4 °C 1013.5 hPa NE 7.6 km/h 11.9 km/h 77% 0.0 mm
22:54 22.6 °C 18.5 °C 1013.5 hPa NE 7.6 km/h 11.3 km/h 77.6% 0.0 mm
22:59 22.5 °C 18.4 °C 1013.5 hPa NE 7.3 km/h 11.3 km/h 78% 0.0 mm
23:04 22.5 °C 18.4 °C 1013.7 hPa NE 6.9 km/h 10.3 km/h 78% 0.0 mm
23:09 22.4 °C 18.4 °C 1013.7 hPa NE 6.7 km/h 11.9 km/h 78% 0.0 mm
23:14 22.4 °C 18.4 °C 1013.7 hPa NE 6.5 km/h 11.3 km/h 78.3% 0.0 mm
23:19 22.4 °C 18.5 °C 1013.7 hPa NE 6.2 km/h 9.7 km/h 79% 0.0 mm
23:24 22.3 °C 18.5 °C 1013.7 hPa NE 5.8 km/h 9.7 km/h 79% 0.0 mm
23:29 22.3 °C 18.5 °C 1013.7 hPa NE 5.5 km/h 9.7 km/h 79% 0.0 mm
23:34 22.3 °C 18.5 °C 1013.9 hPa ENE 5 km/h 8 km/h 79% 0.0 mm
23:39 22.3 °C 18.5 °C 1013.9 hPa Este 4.9 km/h 9.3 km/h 79% 0.0 mm
23:44 22.3 °C 18.5 °C 1013.9 hPa ENE 4.7 km/h 9.7 km/h 79% 0.0 mm
23:49 22.2 °C 18.4 °C 1013.9 hPa NE 4.8 km/h 9.7 km/h 79% 0.0 mm
23:54 22.2 °C 18.5 °C 1013.9 hPa NE 5 km/h 9.7 km/h 79.8% 0.0 mm
23:59 22.1 °C 18.5 °C 1013.9 hPa NE 4.9 km/h 8 km/h 80% 0.0 mm
Murcia-Puente Tocinos, España
Compliments of Weather Underground - 3 mb

La estación de MeteoMurcia.com, publica sus datos en los siguientes proyectos:

Weather Underground PWS IMURCIAP2 Meteoclimatic www.awekas.at

W3Counter
Web Analytics